Time;durP1;ratioP1;P1;durP2;ratioP2;P2;SDS_P1;SDS_P2;PMS_P1;PMS_P2;Temp;Humidity;BMP_temperature;BMP_pressure;BME280_temperature;BME280_humidity;BME280_pressure;Samples;Min_cycle;Max_cycle;Signal;HPM_P1;HPM_P2
2023/01/07 00:01:12;;;;;;;12.65;6.00;;;11.00;75.70;;;;;;5044391;28;20029;-64
2023/01/07 00:03:38;;;;;;;7.53;5.70;;;11.00;75.00;;;;;;5039565;28;20042;-64
2023/01/07 00:06:06;;;;;;;7.63;5.55;;;11.00;75.00;;;;;;5037487;28;20021;-65
2023/01/07 00:08:34;;;;;;;7.93;5.47;;;11.00;75.10;;;;;;5048225;28;20021;-64
2023/01/07 00:11:01;;;;;;;14.07;5.93;;;11.00;75.10;;;;;;5039011;28;20430;-65
2023/01/07 00:13:27;;;;;;;8.45;5.57;;;11.00;75.00;;;;;;5043734;28;20032;-64
2023/01/07 00:15:58;;;;;;;8.60;6.13;;;11.00;75.00;;;;;;5041810;28;20082;-64
2023/01/07 00:18:23;;;;;;;7.55;5.60;;;11.00;75.10;;;;;;5046388;28;20101;-64
2023/01/07 00:20:49;;;;;;;10.00;6.53;;;11.00;75.00;;;;;;5045456;28;20053;-64
2023/01/07 00:23:15;;;;;;;10.23;5.95;;;11.00;75.00;;;;;;5040259;28;20040;-65
2023/01/07 00:25:41;;;;;;;14.00;6.80;;;11.00;75.00;;;;;;5036124;28;20036;-64
2023/01/07 00:28:06;;;;;;;15.80;7.75;;;11.00;75.00;;;;;;5041892;28;20029;-65
2023/01/07 00:30:32;;;;;;;14.85;7.20;;;11.00;75.00;;;;;;5049536;28;20112;-64
2023/01/07 00:33:05;;;;;;;11.90;6.90;;;11.00;75.00;;;;;;5043257;28;20025;-64
2023/01/07 00:35:36;;;;;;;12.43;7.55;;;11.00;75.00;;;;;;5041954;28;20037;-64
2023/01/07 00:38:03;;;;;;;12.88;7.40;;;11.00;75.10;;;;;;5034554;28;20033;-63
2023/01/07 00:40:31;;;;;;;9.90;6.82;;;11.00;75.50;;;;;;5046790;28;20604;-63
2023/01/07 00:43:01;;;;;;;11.65;7.32;;;11.00;75.10;;;;;;5041632;28;20500;-63
2023/01/07 00:45:31;;;;;;;13.02;7.65;;;11.00;75.10;;;;;;5040994;28;20059;-65
2023/01/07 00:47:58;;;;;;;10.52;7.00;;;11.00;75.20;;;;;;5042403;28;20018;-64
2023/01/07 00:50:32;;;;;;;11.27;7.80;;;11.00;75.20;;;;;;5050696;28;20026;-64
2023/01/07 00:52:57;;;;;;;10.40;7.37;;;11.00;75.20;;;;;;5038722;28;20077;-65
2023/01/07 00:55:24;;;;;;;10.52;7.50;;;11.00;75.20;;;;;;5041177;28;20354;-63
2023/01/07 00:57:50;;;;;;;15.80;7.38;;;11.00;75.20;;;;;;5039640;28;20080;-64
2023/01/07 01:00:18;;;;;;;14.23;8.05;;;11.00;75.20;;;;;;5039814;28;20056;-63
2023/01/07 01:02:46;;;;;;;11.18;7.57;;;11.00;75.20;;;;;;5047526;28;20025;-64
2023/01/07 01:05:12;;;;;;;11.02;7.80;;;11.00;75.20;;;;;;5037766;28;20025;-64
2023/01/07 01:07:38;;;;;;;10.23;6.50;;;11.00;75.50;;;;;;5045912;28;20112;-64
2023/01/07 01:10:06;;;;;;;11.88;7.35;;;11.00;75.20;;;;;;5043453;28;20450;-64
2023/01/07 01:12:34;;;;;;;12.10;7.45;;;11.00;75.20;;;;;;5045472;28;20041;-64
2023/01/07 01:15:01;;;;;;;121.95;37.15;;;11.00;75.10;;;;;;5036541;28;20033;-65
2023/01/07 01:17:26;;;;;;;37.25;14.57;;;11.00;75.10;;;;;;5046238;28;20049;-64
2023/01/07 01:19:52;;;;;;;26.45;12.90;;;11.00;75.10;;;;;;5038343;28;20283;-64
2023/01/07 01:22:18;;;;;;;14.82;8.30;;;11.00;75.20;;;;;;5044971;28;20085;-64
2023/01/07 01:24:43;;;;;;;11.55;7.25;;;10.90;75.10;;;;;;5040994;28;20120;-64
2023/01/07 01:27:09;;;;;;;14.95;7.53;;;11.00;75.20;;;;;;5047237;28;20113;-64
2023/01/07 01:29:35;;;;;;;18.30;9.43;;;11.00;75.20;;;;;;5048555;28;20052;-64
2023/01/07 01:32:00;;;;;;;21.98;9.85;;;10.90;75.20;;;;;;5051798;28;20038;-63
2023/01/07 01:34:26;;;;;;;15.50;8.35;;;10.90;75.20;;;;;;5052167;28;20029;-64
2023/01/07 01:36:52;;;;;;;11.45;7.38;;;10.90;75.20;;;;;;5037883;28;20025;-63
2023/01/07 01:39:19;;;;;;;11.77;6.88;;;10.90;75.20;;;;;;5045947;28;20036;-64
2023/01/07 01:41:45;;;;;;;7.82;5.93;;;10.90;75.20;;;;;;5043248;28;20088;-63
2023/01/07 01:44:42;;;;;;;8.52;5.75;;;10.90;75.20;;;;;;5043173;28;20041;-63
2023/01/07 01:47:15;;;;;;;8.77;5.97;;;10.90;75.30;;;;;;5051395;28;20025;-64
2023/01/07 01:49:46;;;;;;;6.63;5.28;;;10.90;75.30;;;;;;5051479;28;20027;-64
2023/01/07 01:52:14;;;;;;;6.97;5.65;;;10.90;75.30;;;;;;5048797;28;20076;-64
2023/01/07 01:54:45;;;;;;;8.15;5.75;;;10.90;75.30;;;;;;5050928;28;20033;-64
2023/01/07 01:57:11;;;;;;;8.90;5.90;;;10.90;75.50;;;;;;5047218;28;20124;-64
2023/01/07 01:59:41;;;;;;;7.40;5.53;;;10.90;75.50;;;;;;5047430;28;20026;-64
2023/01/07 02:02:07;;;;;;;23.30;8.35;;;10.90;75.50;;;;;;5046127;28;20026;-64
2023/01/07 02:04:34;;;;;;;24.17;10.30;;;10.90;75.50;;;;;;5042029;28;20037;-64
2023/01/07 02:07:04;;;;;;;13.55;8.23;;;10.90;75.40;;;;;;5039014;28;20057;-65
2023/01/07 02:09:30;;;;;;;48.50;16.38;;;10.90;75.50;;;;;;5045791;28;20461;-64
2023/01/07 02:12:16;;;;;;;40.92;14.98;;;10.90;75.30;;;;;;5045514;28;20056;-64
2023/01/07 02:14:48;;;;;;;24.73;10.98;;;10.90;75.40;;;;;;5032742;28;20056;-65
2023/01/07 02:17:42;;;;;;;18.48;8.65;;;10.90;75.40;;;;;;5036419;28;20041;-63
2023/01/07 02:20:40;;;;;;;11.02;6.97;;;10.90;75.50;;;;;;5042182;28;20392;-64
2023/01/07 02:23:41;;;;;;;11.57;6.25;;;10.90;75.40;;;;;;5035472;28;20033;-64
2023/01/07 02:26:33;;;;;;;8.73;5.93;;;10.90;75.40;;;;;;5039977;28;20052;-63
2023/01/07 02:29:09;;;;;;;13.52;7.18;;;10.90;75.30;;;;;;5047504;28;20080;-64
2023/01/07 02:32:08;;;;;;;9.95;7.10;;;10.90;75.30;;;;;;5041083;28;20033;-64
2023/01/07 02:35:02;;;;;;;12.75;8.00;;;10.90;75.40;;;;;;5042330;28;20040;-64
2023/01/07 02:37:53;;;;;;;7.55;5.95;;;10.90;75.40;;;;;;5041768;28;20030;-64
2023/01/07 02:40:34;;;;;;;8.73;6.32;;;10.90;75.30;;;;;;5040978;28;20037;-63
2023/01/07 02:43:23;;;;;;;7.72;5.65;;;10.90;75.30;;;;;;5043968;28;20462;-64
2023/01/07 02:46:17;;;;;;;7.63;6.13;;;10.90;75.30;;;;;;5050939;28;20041;-63
2023/01/07 02:48:44;;;;;;;8.00;6.45;;;10.90;75.40;;;;;;5031203;28;20064;-63
2023/01/07 02:51:10;;;;;;;8.10;6.47;;;10.90;75.30;;;;;;5044899;28;20095;-64
2023/01/07 02:53:37;;;;;;;7.97;6.32;;;10.80;75.30;;;;;;5039909;28;20447;-64
2023/01/07 02:56:17;;;;;;;7.65;6.22;;;10.90;75.40;;;;;;5038400;28;20017;-64
2023/01/07 02:59:03;;;;;;;9.45;6.65;;;10.90;75.40;;;;;;5041976;28;20030;-64
2023/01/07 03:02:04;;;;;;;7.65;5.68;;;10.90;75.30;;;;;;5039886;28;20037;-64
2023/01/07 03:04:48;;;;;;;9.98;5.72;;;10.90;75.40;;;;;;5046373;28;20025;-64
2023/01/07 03:07:43;;;;;;;7.88;6.07;;;10.90;75.40;;;;;;5040639;28;20029;-64
2023/01/07 03:10:44;;;;;;;8.65;5.68;;;10.90;75.30;;;;;;5048431;28;20025;-64
2023/01/07 03:13:30;;;;;;;7.68;5.93;;;10.90;75.30;;;;;;5036511;28;20029;-63
2023/01/07 03:16:06;;;;;;;10.70;7.05;;;10.90;75.30;;;;;;5041344;28;20676;-63
2023/01/07 03:18:37;;;;;;;11.65;6.35;;;10.90;75.30;;;;;;5038872;28;20076;-63
2023/01/07 03:21:07;;;;;;;7.90;6.28;;;10.80;75.20;;;;;;5048453;28;20029;-63
2023/01/07 03:23:37;;;;;;;7.72;6.15;;;10.80;75.20;;;;;;5047546;28;20029;-63
2023/01/07 03:26:05;;;;;;;9.15;6.55;;;10.80;76.00;;;;;;5042681;28;20044;-63
2023/01/07 03:28:39;;;;;;;7.38;6.47;;;10.80;75.40;;;;;;5050244;28;20055;-63
2023/01/07 03:31:08;;;;;;;7.55;5.78;;;10.80;75.40;;;;;;5044048;28;20056;-63
2023/01/07 03:33:48;;;;;;;6.88;5.63;;;10.80;75.30;;;;;;5044135;28;20068;-64
2023/01/07 03:36:17;;;;;;;8.45;5.70;;;10.80;75.30;;;;;;5038150;28;20037;-65
2023/01/07 03:38:44;;;;;;;8.13;6.13;;;10.80;75.20;;;;;;5058822;28;20029;-63
2023/01/07 03:42:38;;;;;;;7.80;5.93;;;10.80;75.30;;;;;;5044319;28;20024;-63
2023/01/07 03:43:55;;;;;;;7.45;5.22;;;10.80;75.30;;;;;;5037906;28;20033;-64
2023/01/07 03:46:21;;;;;;;7.82;5.65;;;10.80;75.30;;;;;;5043197;28;20027;-64
2023/01/07 03:48:47;;;;;;;7.03;5.43;;;10.80;75.20;;;;;;5052957;28;20021;-64
2023/01/07 03:51:12;;;;;;;6.35;5.25;;;10.80;75.20;;;;;;5048336;28;20042;-64
2023/01/07 03:53:38;;;;;;;8.43;5.45;;;10.80;75.30;;;;;;5040477;28;20128;-64
2023/01/07 03:56:04;;;;;;;7.78;5.25;;;10.80;75.30;;;;;;5044777;28;20080;-64
2023/01/07 03:58:30;;;;;;;7.53;5.65;;;10.80;75.20;;;;;;5043738;28;20088;-64
2023/01/07 04:00:55;;;;;;;10.25;5.28;;;10.80;75.20;;;;;;5048580;28;20096;-64
2023/01/07 04:03:21;;;;;;;8.20;6.15;;;10.80;75.30;;;;;;5050425;28;20029;-64
2023/01/07 04:05:46;;;;;;;6.57;5.55;;;10.80;75.30;;;;;;5049555;28;20029;-64
2023/01/07 04:08:12;;;;;;;6.13;5.10;;;10.80;75.40;;;;;;5046361;28;20081;-64
2023/01/07 04:10:39;;;;;;;6.57;5.20;;;10.80;75.40;;;;;;5049898;28;20047;-64
2023/01/07 04:13:04;;;;;;;6.50;5.70;;;10.70;75.30;;;;;;5040888;28;20096;-64
2023/01/07 04:15:30;;;;;;;8.98;5.40;;;10.80;75.40;;;;;;5029836;28;20049;-64
2023/01/07 04:17:56;;;;;;;6.20;5.60;;;10.70;75.30;;;;;;5045744;28;20029;-64
2023/01/07 04:20:21;;;;;;;11.38;5.40;;;10.70;75.30;;;;;;4986641;28;20032;-64
2023/01/07 04:22:47;;;;;;;12.70;5.75;;;10.70;75.30;;;;;;5043271;28;20051;-63
2023/01/07 04:25:13;;;;;;;7.00;5.60;;;10.70;75.40;;;;;;5037916;28;20121;-64
2023/01/07 04:27:38;;;;;;;7.10;5.53;;;10.70;75.30;;;;;;5050145;28;20475;-65
2023/01/07 04:30:04;;;;;;;7.75;6.00;;;10.70;75.30;;;;;;5035964;28;20033;-64
2023/01/07 04:32:30;;;;;;;7.95;5.55;;;10.80;75.40;;;;;;5037676;28;20056;-64
2023/01/07 04:34:56;;;;;;;6.80;5.22;;;10.70;75.30;;;;;;5049501;28;20052;-64
2023/01/07 04:37:21;;;;;;;6.63;5.43;;;10.70;75.30;;;;;;5038902;28;20056;-64
2023/01/07 04:39:47;;;;;;;7.75;5.78;;;10.70;75.30;;;;;;5045688;28;20037;-65
2023/01/07 04:42:12;;;;;;;7.35;5.40;;;10.80;75.40;;;;;;5047625;28;20036;-64
2023/01/07 04:44:38;;;;;;;37.85;13.60;;;10.80;75.40;;;;;;5034719;28;20026;-64
2023/01/07 04:47:04;;;;;;;62.05;23.08;;;10.70;75.30;;;;;;5045768;28;20445;-64
2023/01/07 04:49:29;;;;;;;147.13;44.00;;;10.70;75.30;;;;;;5048498;28;20542;-65
2023/01/07 04:51:55;;;;;;;93.22;33.30;;;10.70;75.30;;;;;;5051214;28;20049;-64
2023/01/07 04:54:20;;;;;;;152.02;47.00;;;10.70;75.20;;;;;;5046925;28;20512;-64
2023/01/07 04:56:46;;;;;;;138.20;49.67;;;10.70;75.20;;;;;;5046902;28;20025;-65
2023/01/07 04:59:12;;;;;;;96.82;36.22;;;10.70;75.20;;;;;;5045277;28;20020;-64
2023/01/07 05:01:37;;;;;;;50.83;21.27;;;10.70;75.20;;;;;;5044637;28;20047;-65
2023/01/07 05:04:03;;;;;;;28.23;13.40;;;10.70;75.20;;;;;;5047347;28;20041;-64
2023/01/07 05:06:29;;;;;;;21.33;10.02;;;10.70;75.10;;;;;;5053164;28;20054;-64
2023/01/07 05:08:54;;;;;;;17.15;8.27;;;10.70;75.10;;;;;;5049788;28;20030;-65
2023/01/07 05:11:20;;;;;;;13.52;7.20;;;10.70;75.00;;;;;;5045174;28;20435;-64
2023/01/07 05:13:49;;;;;;;16.60;6.88;;;10.70;75.00;;;;;;5039405;28;20017;-65
2023/01/07 05:16:16;;;;;;;12.00;7.07;;;10.70;75.00;;;;;;5048694;28;20055;-65
2023/01/07 05:18:42;;;;;;;10.60;7.18;;;10.70;75.00;;;;;;4946801;28;20628;-64
2023/01/07 05:21:09;;;;;;;9.27;6.07;;;10.70;75.10;;;;;;5048647;28;20464;-65
2023/01/07 05:23:35;;;;;;;8.23;5.13;;;10.70;75.10;;;;;;5042327;28;20176;-64
2023/01/07 05:26:01;;;;;;;9.27;5.78;;;10.60;75.00;;;;;;5042757;28;20030;-64
2023/01/07 05:28:26;;;;;;;8.15;6.25;;;10.70;75.10;;;;;;5045607;28;20033;-65
2023/01/07 05:30:52;;;;;;;9.40;6.50;;;10.60;75.10;;;;;;5050053;28;20503;-65
2023/01/07 05:33:18;;;;;;;7.63;5.93;;;10.60;75.10;;;;;;5043672;28;20472;-65
2023/01/07 05:35:47;;;;;;;11.70;5.88;;;10.60;75.20;;;;;;5048384;28;20055;-65
2023/01/07 05:38:13;;;;;;;9.00;6.13;;;10.60;75.10;;;;;;5047765;28;20030;-64
2023/01/07 05:40:40;;;;;;;9.68;6.15;;;10.60;75.10;;;;;;5041798;28;20077;-66
2023/01/07 05:43:06;;;;;;;9.27;6.70;;;10.60;75.10;;;;;;5050620;28;20594;-63
2023/01/07 05:45:32;;;;;;;13.05;6.70;;;10.60;75.10;;;;;;5041872;28;20052;-63
2023/01/07 05:47:57;;;;;;;9.93;6.25;;;10.60;75.10;;;;;;5048157;28;20211;-63
2023/01/07 05:50:24;;;;;;;8.57;5.95;;;10.60;75.20;;;;;;5052162;28;20040;-65
2023/01/07 05:52:51;;;;;;;8.98;6.50;;;10.60;75.30;;;;;;5053321;28;20037;-64
2023/01/07 05:55:16;;;;;;;7.05;5.40;;;10.60;75.30;;;;;;5044060;28;20492;-64
2023/01/07 05:57:42;;;;;;;7.47;6.13;;;10.60;75.30;;;;;;5048756;28;20188;-65
2023/01/07 06:00:09;;;;;;;8.02;6.05;;;10.60;75.30;;;;;;5045324;28;20051;-64
2023/01/07 06:02:36;;;;;;;8.38;5.63;;;10.60;75.20;;;;;;5043297;28;20060;-64
2023/01/07 06:05:02;;;;;;;8.77;6.05;;;10.60;75.20;;;;;;5040629;28;20090;-64
2023/01/07 06:07:28;;;;;;;9.32;6.03;;;10.60;75.20;;;;;;5044375;28;20075;-64
2023/01/07 06:09:53;;;;;;;7.32;5.40;;;10.60;75.20;;;;;;5044585;28;20427;-64
2023/01/07 06:12:19;;;;;;;12.25;5.50;;;10.60;75.20;;;;;;5050246;28;20041;-63
2023/01/07 06:14:45;;;;;;;8.90;6.05;;;10.60;75.20;;;;;;5051094;28;20029;-65
2023/01/07 06:17:10;;;;;;;7.78;6.07;;;10.60;75.20;;;;;;5045308;28;20036;-64
2023/01/07 06:19:36;;;;;;;7.90;5.72;;;10.60;75.20;;;;;;5036736;28;20096;-63
2023/01/07 06:22:02;;;;;;;6.13;5.53;;;10.60;75.20;;;;;;5040754;28;20047;-64
2023/01/07 06:24:28;;;;;;;7.72;6.20;;;10.60;75.20;;;;;;5040563;28;20164;-64
2023/01/07 06:26:53;;;;;;;7.10;5.47;;;10.60;75.20;;;;;;5047804;28;20033;-65
2023/01/07 06:29:19;;;;;;;7.38;6.05;;;10.60;75.20;;;;;;5053475;28;20029;-65
2023/01/07 06:31:45;;;;;;;7.15;5.75;;;10.60;75.20;;;;;;5049149;28;20072;-64
2023/01/07 06:34:10;;;;;;;7.43;6.22;;;10.60;75.20;;;;;;5047229;28;20475;-65
2023/01/07 06:36:36;;;;;;;6.28;5.68;;;10.60;75.20;;;;;;5047039;28;20488;-65
2023/01/07 06:39:01;;;;;;;8.00;5.95;;;10.60;75.20;;;;;;5045633;28;20460;-64
2023/01/07 06:41:27;;;;;;;6.75;5.82;;;10.50;75.10;;;;;;5043835;28;20037;-65
2023/01/07 06:43:53;;;;;;;8.45;5.85;;;10.50;75.10;;;;;;5058732;28;20029;-64
2023/01/07 06:46:18;;;;;;;7.57;6.00;;;10.50;75.10;;;;;;5034440;28;20641;-63
2023/01/07 06:48:44;;;;;;;7.97;6.20;;;10.50;75.10;;;;;;5048795;28;20064;-63
2023/01/07 06:51:09;;;;;;;10.15;7.70;;;10.50;75.20;;;;;;5042396;28;20029;-65
2023/01/07 06:53:36;;;;;;;10.13;6.90;;;10.50;75.20;;;;;;5039020;28;20054;-63
2023/01/07 06:56:02;;;;;;;10.18;6.97;;;10.50;75.20;;;;;;5044589;28;20025;-63
2023/01/07 06:58:27;;;;;;;9.43;7.45;;;10.50;75.20;;;;;;5040785;28;20026;-64
2023/01/07 07:00:53;;;;;;;12.25;7.05;;;10.50;75.30;;;;;;5047161;28;20029;-63
2023/01/07 07:03:19;;;;;;;10.63;7.35;;;10.50;75.30;;;;;;5037902;28;20037;-63
2023/01/07 07:05:45;;;;;;;9.18;7.00;;;10.50;75.30;;;;;;5045458;28;20039;-64
2023/01/07 07:08:11;;;;;;;11.10;7.45;;;10.50;75.30;;;;;;5048826;28;20071;-63
2023/01/07 07:10:37;;;;;;;9.70;6.97;;;10.50;75.30;;;;;;5046072;28;20033;-64
2023/01/07 07:13:02;;;;;;;11.88;7.40;;;10.50;75.20;;;;;;5036152;28;20469;-64
2023/01/07 07:15:28;;;;;;;11.07;7.43;;;10.50;75.20;;;;;;5040987;28;20045;-64
2023/01/07 07:17:53;;;;;;;10.43;7.50;;;10.40;75.10;;;;;;5046855;28;20551;-64
2023/01/07 07:20:19;;;;;;;9.32;7.35;;;10.50;75.90;;;;;;5041196;28;20021;-64
2023/01/07 07:22:46;;;;;;;10.05;7.88;;;10.40;75.20;;;;;;5043597;28;20021;-65
2023/01/07 07:25:12;;;;;;;13.00;7.57;;;10.40;75.20;;;;;;5043253;28;20035;-64
2023/01/07 07:27:38;;;;;;;10.55;7.55;;;10.40;75.20;;;;;;5045394;28;20040;-65
2023/01/07 07:30:04;;;;;;;11.35;7.80;;;10.40;75.30;;;;;;5047844;28;20033;-65
2023/01/07 07:32:30;;;;;;;9.00;7.35;;;10.40;75.30;;;;;;5046424;28;20104;-64
2023/01/07 07:34:55;;;;;;;9.45;6.82;;;10.40;75.30;;;;;;5043458;28;20037;-64
2023/01/07 07:37:21;;;;;;;11.05;7.70;;;10.40;75.30;;;;;;5040160;28;20020;-64
2023/01/07 07:39:47;;;;;;;10.05;7.57;;;10.40;75.30;;;;;;5045383;28;20031;-64
2023/01/07 07:42:12;;;;;;;11.65;8.02;;;10.40;75.30;;;;;;5040922;28;20044;-64
2023/01/07 07:44:38;;;;;;;9.73;7.32;;;10.40;75.30;;;;;;5043552;28;20029;-64
2023/01/07 07:47:04;;;;;;;11.95;7.70;;;10.40;75.30;;;;;;5043878;28;20021;-64
2023/01/07 07:49:29;;;;;;;10.93;8.18;;;10.40;75.30;;;;;;5046734;28;20037;-64
2023/01/07 07:51:55;;;;;;;10.75;7.97;;;10.50;75.30;;;;;;5045464;28;20040;-64
2023/01/07 07:54:21;;;;;;;9.90;8.02;;;10.40;75.40;;;;;;5056982;28;20017;-64
2023/01/07 07:56:46;;;;;;;13.30;8.85;;;10.40;75.40;;;;;;5041270;28;20025;-65
2023/01/07 07:59:13;;;;;;;13.07;8.43;;;10.50;75.50;;;;;;5047267;28;20389;-63
2023/01/07 08:01:39;;;;;;;12.32;9.07;;;10.50;75.50;;;;;;5039121;28;20033;-64
2023/01/07 08:04:04;;;;;;;11.27;8.60;;;10.50;75.40;;;;;;5051353;28;20051;-64
2023/01/07 08:06:30;;;;;;;12.38;9.23;;;10.50;75.40;;;;;;5045495;28;20838;-66
2023/01/07 08:08:56;;;;;;;10.13;7.65;;;10.50;75.40;;;;;;5046475;28;20060;-65
2023/01/07 08:11:21;;;;;;;13.50;9.35;;;10.60;75.50;;;;;;5042218;28;20102;-65
2023/01/07 08:13:47;;;;;;;9.52;7.60;;;10.60;75.30;;;;;;5043078;28;20053;-65
2023/01/07 08:16:13;;;;;;;14.88;8.75;;;10.60;75.20;;;;;;5041713;28;20032;-65
2023/01/07 08:18:38;;;;;;;8.57;6.90;;;10.60;75.20;;;;;;5044434;28;20036;-64
2023/01/07 08:21:04;;;;;;;13.40;8.10;;;10.60;75.20;;;;;;5034108;28;20059;-64
2023/01/07 08:23:30;;;;;;;13.95;10.73;;;10.60;75.10;;;;;;5038810;28;20076;-64
2023/01/07 08:26:01;;;;;;;12.65;9.68;;;10.70;75.10;;;;;;5039472;28;20405;-64
2023/01/07 08:28:27;;;;;;;11.15;8.05;;;10.70;75.10;;;;;;5044849;28;20068;-64
2023/01/07 08:30:53;;;;;;;10.30;7.43;;;10.70;75.10;;;;;;5054700;28;20025;-64
2023/01/07 08:33:19;;;;;;;9.75;7.45;;;10.70;75.10;;;;;;5043091;28;20555;-64
2023/01/07 08:35:44;;;;;;;9.20;7.68;;;10.80;75.00;;;;;;5038408;28;20037;-64
2023/01/07 08:38:10;;;;;;;11.13;9.05;;;10.80;74.90;;;;;;5045416;28;20032;-65
2023/01/07 08:40:37;;;;;;;11.50;8.13;;;10.80;75.00;;;;;;5046003;28;20081;-64
2023/01/07 08:43:05;;;;;;;12.57;9.00;;;10.90;74.90;;;;;;5044490;28;20406;-64
2023/01/07 08:45:31;;;;;;;9.32;8.10;;;10.90;74.80;;;;;;5035706;28;20105;-64
2023/01/07 08:47:58;;;;;;;11.00;7.55;;;11.00;74.80;;;;;;5038293;28;20473;-64
2023/01/07 08:50:29;;;;;;;7.30;6.15;;;11.00;74.60;;;;;;5035423;28;20044;-64
2023/01/07 08:52:55;;;;;;;6.85;5.95;;;11.00;74.60;;;;;;5040379;28;20037;-64
2023/01/07 08:55:21;;;;;;;11.90;9.52;;;11.10;74.60;;;;;;5054046;28;20041;-65
2023/01/07 08:57:47;;;;;;;10.15;7.75;;;11.20;74.60;;;;;;5047718;28;20044;-65
2023/01/07 09:00:15;;;;;;;14.77;10.30;;;11.30;74.40;;;;;;5048947;28;20026;-66
2023/01/07 09:02:40;;;;;;;7.90;6.32;;;11.40;74.20;;;;;;5049000;28;20033;-64
2023/01/07 09:05:07;;;;;;;7.97;5.30;;;11.50;73.80;;;;;;5044832;28;20043;-64
2023/01/07 09:07:32;;;;;;;5.75;4.68;;;11.60;73.10;;;;;;5038509;28;20025;-64
2023/01/07 09:09:58;;;;;;;6.82;5.38;;;11.70;72.40;;;;;;5046465;28;20123;-64
2023/01/07 09:12:23;;;;;;;5.75;4.60;;;11.80;72.20;;;;;;5042891;28;20053;-64
2023/01/07 09:14:49;;;;;;;11.10;5.82;;;11.80;71.50;;;;;;5043692;28;20021;-65
2023/01/07 09:17:15;;;;;;;9.02;5.80;;;11.80;71.50;;;;;;5044250;28;20028;-64
2023/01/07 09:19:40;;;;;;;9.10;5.45;;;11.90;71.40;;;;;;5037815;28;20029;-64
2023/01/07 09:22:06;;;;;;;10.25;6.03;;;11.90;71.00;;;;;;5042362;28;20029;-64
2023/01/07 09:24:32;;;;;;;12.70;6.93;;;11.90;70.90;;;;;;5050894;28;20029;-64
2023/01/07 09:26:57;;;;;;;10.90;6.63;;;11.90;70.70;;;;;;5040303;28;20009;-65
2023/01/07 09:29:23;;;;;;;10.07;6.13;;;11.90;70.40;;;;;;5034511;28;20086;-65
2023/01/07 09:31:48;;;;;;;10.32;6.72;;;11.90;70.30;;;;;;5051593;28;20033;-64
2023/01/07 09:34:14;;;;;;;11.45;6.78;;;11.90;70.20;;;;;;5046176;28;20041;-64
2023/01/07 09:36:40;;;;;;;7.35;4.82;;;11.90;70.20;;;;;;5043497;28;20032;-65
2023/01/07 09:39:05;;;;;;;6.50;4.97;;;11.90;70.30;;;;;;5044902;28;20076;-65
2023/01/07 09:41:57;;;;;;;6.70;4.55;;;11.90;70.30;;;;;;5038547;28;20103;-64
2023/01/07 09:45:00;;;;;;;5.65;4.45;;;11.90;69.70;;;;;;5044218;28;20025;-65
2023/01/07 09:47:28;;;;;;;8.68;5.75;;;11.90;69.30;;;;;;5041529;28;20057;-64
2023/01/07 09:49:59;;;;;;;5.22;3.97;;;12.00;69.90;;;;;;5040858;28;20029;-64
2023/01/07 09:52:35;;;;;;;7.28;4.25;;;12.00;69.40;;;;;;5037680;28;20049;-64
2023/01/07 09:55:11;;;;;;;4.78;3.60;;;12.00;69.00;;;;;;5032448;28;20093;-65
2023/01/07 09:57:37;;;;;;;4.32;3.60;;;12.10;69.30;;;;;;5041970;28;20028;-64
2023/01/07 10:00:12;;;;;;;3.85;3.30;;;12.10;69.30;;;;;;5034030;28;20081;-65
2023/01/07 10:03:02;;;;;;;3.83;3.00;;;12.10;69.20;;;;;;5039007;28;20021;-65
2023/01/07 10:05:43;;;;;;;5.18;2.97;;;12.20;68.20;;;;;;5041291;28;20089;-65
2023/01/07 10:08:28;;;;;;;5.53;3.10;;;12.20;68.40;;;;;;5046899;28;20089;-66
2023/01/07 10:11:07;;;;;;;3.08;2.72;;;12.20;67.80;;;;;;5042746;28;20053;-65
2023/01/07 10:14:01;;;;;;;3.58;3.20;;;12.30;68.10;;;;;;5041704;28;20052;-65
2023/01/07 10:16:42;;;;;;;4.55;2.33;;;12.40;67.80;;;;;;5044136;28;20029;-64
2023/01/07 10:19:13;;;;;;;3.42;3.08;;;12.40;67.40;;;;;;5046680;28;20033;-65
2023/01/07 10:21:46;;;;;;;2.60;2.40;;;12.50;68.50;;;;;;5039056;28;20029;-64
2023/01/07 10:24:23;;;;;;;3.55;3.00;;;12.50;67.50;;;;;;5045447;28;20021;-65
2023/01/07 10:26:52;;;;;;;3.00;2.42;;;12.60;67.00;;;;;;5047417;28;20113;-65
2023/01/07 10:29:43;;;;;;;2.83;2.60;;;12.60;67.40;;;;;;5047836;28;20109;-64
2023/01/07 10:32:13;;;;;;;2.97;2.67;;;12.70;65.70;;;;;;5040724;28;20068;-64
2023/01/07 10:34:55;;;;;;;2.65;2.30;;;12.70;67.40;;;;;;5048631;28;20025;-65
2023/01/07 10:37:38;;;;;;;3.53;2.78;;;12.70;66.10;;;;;;5044523;28;20064;-65
2023/01/07 10:40:16;;;;;;;3.05;2.47;;;12.80;65.90;;;;;;5040598;28;20111;-65
2023/01/07 10:43:10;;;;;;;3.38;2.70;;;12.80;66.40;;;;;;5045518;28;20103;-65
2023/01/07 10:45:49;;;;;;;2.92;2.63;;;12.80;66.30;;;;;;5045108;28;20083;-64
2023/01/07 10:48:14;;;;;;;3.30;2.78;;;12.80;65.60;;;;;;5035098;28;20037;-65
2023/01/07 10:51:06;;;;;;;3.58;2.95;;;12.90;66.20;;;;;;5040642;28;20032;-64
2023/01/07 10:53:47;;;;;;;3.80;3.40;;;12.90;65.00;;;;;;5041250;28;20099;-64
2023/01/07 10:56:48;;;;;;;4.70;3.58;;;12.90;65.10;;;;;;5042305;28;20384;-64
2023/01/07 10:59:17;;;;;;;3.20;2.70;;;13.00;65.10;;;;;;5038048;28;20029;-65
2023/01/07 11:01:53;;;;;;;3.13;2.83;;;13.10;65.30;;;;;;5034741;28;20046;-65
2023/01/07 11:04:19;;;;;;;6.85;4.65;;;13.10;64.70;;;;;;5039816;28;20048;-65
2023/01/07 11:06:47;;;;;;;8.52;6.05;;;13.20;65.20;;;;;;5035307;28;20038;-65
2023/01/07 11:09:19;;;;;;;4.57;3.92;;;13.30;64.60;;;;;;5040343;28;20037;-64
2023/01/07 11:11:45;;;;;;;4.78;4.10;;;13.40;64.40;;;;;;5040910;28;20127;-65
2023/01/07 11:14:41;;;;;;;5.15;3.28;;;13.40;64.70;;;;;;5050604;28;20017;-65
2023/01/07 11:17:27;;;;;;;3.40;3.10;;;13.40;62.80;;;;;;5037190;28;20033;-64
2023/01/07 11:19:53;;;;;;;2.63;2.25;;;13.50;62.80;;;;;;5030964;28;20507;-64
2023/01/07 11:22:25;;;;;;;3.92;2.55;;;13.50;64.20;;;;;;5039850;28;20029;-64
2023/01/07 11:24:52;;;;;;;2.90;2.35;;;13.60;63.40;;;;;;5048019;28;20057;-66
2023/01/07 11:27:19;;;;;;;3.25;2.25;;;13.60;63.90;;;;;;5035900;28;20029;-66
2023/01/07 11:30:00;;;;;;;2.95;2.40;;;13.60;63.80;;;;;;5040493;28;20033;-66
2023/01/07 11:32:29;;;;;;;2.95;2.65;;;13.60;62.50;;;;;;5040526;28;20055;-64
2023/01/07 11:35:07;;;;;;;2.53;2.25;;;13.70;63.20;;;;;;5044791;28;20025;-66
2023/01/07 11:37:44;;;;;;;2.38;2.17;;;13.70;62.60;;;;;;5038229;28;20033;-64
2023/01/07 11:40:13;;;;;;;4.32;2.30;;;13.70;62.30;;;;;;5061028;28;20408;-65
2023/01/07 11:43:17;;;;;;;3.50;2.80;;;13.70;62.60;;;;;;5048236;28;20025;-65
2023/01/07 11:45:55;;;;;;;2.85;2.65;;;13.70;61.40;;;;;;5044069;28;20040;-64
2023/01/07 11:48:30;;;;;;;3.60;2.88;;;13.80;61.90;;;;;;5037924;28;20045;-64
2023/01/07 11:51:00;;;;;;;4.30;3.15;;;13.80;62.10;;;;;;5043873;28;20025;-65
2023/01/07 11:53:42;;;;;;;4.32;3.33;;;13.80;62.60;;;;;;5060666;28;20037;-65
2023/01/07 11:56:12;;;;;;;8.43;6.22;;;13.90;62.20;;;;;;5044161;28;20044;-66
2023/01/07 11:58:43;;;;;;;4.10;3.65;;;13.90;62.70;;;;;;5049632;28;20033;-65
2023/01/07 12:01:11;;;;;;;4.65;3.85;;;13.90;61.90;;;;;;5044822;28;20829;-64
2023/01/07 12:03:39;;;;;;;3.55;3.25;;;13.90;62.40;;;;;;5051409;28;20040;-65
2023/01/07 12:06:16;;;;;;;4.28;3.28;;;14.00;62.50;;;;;;5042905;28;20421;-64
2023/01/07 12:09:09;;;;;;;3.85;3.13;;;14.00;61.40;;;;;;5043559;28;20037;-64
2023/01/07 12:11:38;;;;;;;2.60;2.35;;;14.00;61.20;;;;;;5043514;28;20050;-65
2023/01/07 12:14:19;;;;;;;3.20;2.78;;;14.00;61.50;;;;;;5038829;28;20101;-65
2023/01/07 12:16:45;;;;;;;3.95;2.45;;;13.90;60.40;;;;;;5042180;28;20522;-64
2023/01/07 12:19:35;;;;;;;4.10;3.60;;;13.90;61.50;;;;;;5045524;28;20025;-65
2023/01/07 12:22:20;;;;;;;3.60;3.17;;;13.90;60.90;;;;;;5047620;28;20029;-64
2023/01/07 12:24:57;;;;;;;3.60;2.70;;;13.80;61.20;;;;;;5041871;28;20025;-65
2023/01/07 12:28:07;;;;;;;2.63;2.42;;;13.80;61.50;;;;;;5050933;28;20037;-65
2023/01/07 12:30:39;;;;;;;3.65;2.72;;;13.80;61.50;;;;;;5003493;28;20031;-65
2023/01/07 12:33:20;;;;;;;2.53;2.33;;;13.80;61.90;;;;;;4995758;28;20038;-64
2023/01/07 12:35:46;;;;;;;3.88;3.38;;;13.80;62.00;;;;;;4987603;28;20041;-65
2023/01/07 12:38:19;;;;;;;3.53;2.95;;;13.80;62.00;;;;;;4998772;28;20034;-65
2023/01/07 12:41:01;;;;;;;3.17;2.88;;;13.80;62.20;;;;;;4993096;28;20034;-64
2023/01/07 12:43:42;;;;;;;2.90;2.60;;;13.90;62.10;;;;;;5000004;28;20026;-65
2023/01/07 12:46:13;;;;;;;2.55;2.35;;;13.90;61.20;;;;;;4995346;28;20035;-64
2023/01/07 12:48:55;;;;;;;2.80;2.30;;;13.90;61.30;;;;;;5008853;28;20046;-64
2023/01/07 12:51:50;;;;;;;3.38;2.55;;;14.00;61.20;;;;;;5003708;28;20038;-65
2023/01/07 12:54:18;;;;;;;;;;;14.00;61.30;;;;;;4975771;28;20048;-64
2023/01/07 12:56:52;;;;;;;2.50;2.30;;;14.10;61.40;;;;;;5002952;28;20037;-66
2023/01/07 12:59:34;;;;;;;2.40;2.20;;;14.20;61.80;;;;;;4997911;28;20132;-64
2023/01/07 13:02:25;;;;;;;3.45;2.70;;;14.20;60.80;;;;;;5022232;28;20100;-64